Weather observations for the past three days for
Front Royal-warren County Airport
Imperial (Metric)
Date Time (edt) Wind (mph) Vis. (mi.) Weather Sky Cond. Temperature (ºF) Relative Humidity Wind Chill (°F) Heat Index (°F) Pressure Precipitation (in)
Air Dwpt 6 hour altimeter (in) sea level (mb) 1 hr 3 hr 6 hr
Max. Min.
06 04:35 SW 5 10.00 Partly Cloudy SCT100 SCT120 65.8 46.6 50% 29.77 0.0
06 04:15 S 6 10.00 Partly Cloudy SCT120 66.2 46.4 49% 29.77 0.0
06 03:55 Calm 10.00 Fair CLR 65.3 46.4 51% 29.77 0.0
06 03:35 Calm 10.00 Fair CLR 66.2 45.9 48% 29.77 0.0
06 03:15 SW 3 10.00 Fair CLR 66.9 45.7 47% 29.77 0.0
06 02:55 SW 6 10.00 Fair CLR 67.1 45.5 46% 29.77 0.0
06 02:15 SW 6 10.00 Partly Cloudy SCT095 67.1 45.3 46% 29.79 0.0
06 01:55 S 3 10.00 Partly Cloudy SCT095 67.5 45.1 76.1 67.5 45% 29.79 0.0
06 01:35 SW 5 10.00 Partly Cloudy SCT095 68 44.8 43% 29.8 0.0
06 01:15 SW 5 10.00 Fair CLR 68.4 44.8 43% 29.8 0.0
06 00:55 SW 3 10.00 Fair CLR 68.7 44.6 42% 29.81 0.0
06 00:35 SW 6 10.00 Fair CLR 69.1 44.2 41% 29.81 0.0
06 00:15 SW 5 10.00 Fair CLR 68.9 44.1 41% 29.81 0.0
05 23:55 SW 6 10.00 Fair CLR 70 43.7 39% 29.81 0.0
05 23:35 SW 3 10.00 Fair CLR 70.2 43.3 38% 29.81 0.0
05 23:15 SW 3 10.00 Fair CLR 70 43.2 38% 29.81 0.0
05 22:55 SW 5 10.00 Fair CLR 70.7 43.2 37% 29.82 0.0
05 22:35 SW 5 10.00 Fair CLR 71.2 42.6 36% 29.82 0.0
05 22:15 SW 6 10.00 Fair CLR 71.8 42.1 34% 29.82 0.0
05 21:55 SW 5 10.00 Fair CLR 72 41.4 33% 29.81 0.0
05 21:35 SW 6 10.00 Fair CLR 72.7 40.5 31% 29.81 0.0
05 21:15 S 5 10.00 Fair CLR 73.4 39.6 29% 29.8 0.0
05 20:55 S 8 10.00 Fair CLR 73.8 39.2 29% 29.8 0.0
05 20:35 S 6 10.00 Fair CLR 74.7 38.8 27% 29.79 0.0
05 20:15 S 9 10.00 Fair CLR 75.6 38.8 27% 77 29.78 0.0
05 19:55 S 8 10.00 Fair CLR 76.3 39.6 81.9 76.1 27% 77 29.78 0.0
05 19:35 S 7 10.00 Fair CLR 76.8 40.8 28% 77 29.77 0.0
05 19:15 S 8 10.00 Fair CLR 77.2 40.8 27% 78 29.77 0.0
05 18:55 SW 9 G 20 10.00 Fair CLR 79 42.8 28% 78 29.78 0.0
05 18:35 S 9 10.00 Fair CLR 79.9 44.2 28% 79 29.78 0.0
05 18:15 S 7 10.00 Fair CLR 79.2 42.6 27% 79 29.78 0.0
05 17:55 S 9 G 16 10.00 Fair CLR 80.2 42.1 26% 79 29.77 0.0
05 17:35 S 14 G 20 10.00 Fair CLR 79.9 39.4 24% 79 29.77 0.0
05 17:15 SW 13 G 25 10.00 Fair CLR 80.1 36.9 21% 79 29.77 0.0
05 16:55 SW 8 G 21 10.00 Fair CLR 80.6 37.6 21% 79 29.77 0.0
05 16:35 S 8 G 20 10.00 Fair CLR 81.1 38.7 22% 79 29.77 0.0
05 16:15 S 12 G 24 10.00 Fair CLR 81.1 39.4 23% 79 29.78 0.0
05 15:55 S 12 G 23 10.00 Fair CLR 81.3 39.6 23% 80 29.78 0.0
05 15:35 SW 13 G 26 10.00 Fair CLR 81.5 39.7 23% 80 29.78 0.0
05 15:15 S 14 G 23 10.00 Fair CLR 81.7 40.8 23% 80 29.79 0.0
05 14:55 S 14 G 26 10.00 Fair CLR 81.5 42.6 25% 80 29.8 0.0
05 14:35 S 10 G 21 10.00 Fair CLR 81.5 44.6 27% 80 29.81 0.0
05 14:15 S 12 G 24 10.00 Fair CLR 81 44.8 28% 80 29.81 0.0
05 13:55 S 10 G 18 10.00 Fair CLR 81.3 46.8 81.3 64.2 30% 80 29.82 0.0
05 13:35 SW 8 G 22 10.00 Fair CLR 80.6 48 32% 80 29.83 0.0
05 13:15 S 9 G 18 10.00 Fair CLR 79.7 47.8 33% 79 29.83 0.0
05 12:55 S 9 G 20 10.00 Fair CLR 79.5 48.7 34% 79 29.84 0.0
05 12:35 SW 9 G 18 10.00 Fair CLR 79 48.4 34% 79 29.85 0.0
05 12:15 S 8 G 21 10.00 Fair CLR 79.2 49.6 36% 79 29.86 0.0
05 11:55 S 7 G 17 10.00 Fair CLR 77.5 48.9 37% 78 29.86 0.0
05 11:35 S 8 10.00 Fair CLR 77 47.8 36% 78 29.87 0.0
05 11:15 S 8 10.00 Fair CLR 77 49.1 38% 78 29.87 0.0
05 10:55 S 8 10.00 Fair CLR 75.9 48.7 38% 78 29.87 0.0
05 10:35 S 9 G 16 10.00 Fair CLR 75.2 48.7 39% 78 29.86 0.0
05 10:15 S 7 10.00 Fair CLR 74.3 49.3 41% 29.86 0.0
05 09:55 SW 6 10.00 Fair CLR 72.9 49.1 43% 29.87 0.0
05 09:35 SW 6 10.00 Fair CLR 71.1 48.4 45% 29.87 0.0
05 09:15 S 5 10.00 Fair CLR 70 48.4 46% 29.87 0.0
05 08:55 S 5 10.00 Fair CLR 68.2 48.4 49% 29.88 0.0
05 08:35 SE 5 10.00 Fair CLR 66.6 47.8 51% 29.89 0.0
05 08:15 SE 3 10.00 Fair CLR 65.1 47.3 53% 29.89 0.0
05 07:55 SE 3 10.00 Fair CLR 63.9 47.1 64.4 60.6 55% 29.88 0.0
05 07:35 Calm 10.00 Fair CLR 61.2 46 58% 29.88 0.0
05 07:15 S 3 10.00 Fair CLR 62.8 45 52% 29.87 0.0
05 06:55 S 6 10.00 Fair CLR 63.7 44.1 49% 29.86 0.0
05 06:35 SW 6 10.00 Fair CLR 63.7 44.2 49% 29.85 0.0
05 06:15 S 6 10.00 Fair CLR 63.7 44.4 50% 29.85 0.0
05 05:55 SW 7 10.00 Fair CLR 64.4 44.2 48% 29.84 0.0
05 05:35 SW 8 10.00 Fair CLR 64 44.8 50% 29.84 0.0
05 05:15 SW 9 10.00 Fair CLR 63.7 45.3 51% 29.84 0.0
05 04:55 SW 7 10.00 Fair CLR 63.5 45.5 52% 29.84 0.0
05 04:35 SW 8 10.00 Fair CLR 63.3 45.9 53% 29.84 0.0
05 04:15 SW 8 10.00 Fair CLR 63.3 46.4 54% 29.84 0.0
05 03:55 SW 8 10.00 Fair CLR 63.5 46.6 54% 29.83 0.0
05 03:35 SW 5 10.00 Fair CLR 62.4 46.9 57% 29.83 0.0
05 03:15 SW 6 10.00 Fair CLR 62.6 47.3 58% 29.83 0.0
05 02:55 SW 6 10.00 Fair CLR 63.3 47.3 56% 29.83 0.0
05 02:35 SW 7 10.00 Fair CLR 63 47.7 58% 29.84 0.0
05 02:15 SW 6 10.00 Fair CLR 61.9 47.8 60% 29.84 0.0
05 01:55 S 5 10.00 Fair CLR 60.3 48.2 68.9 57.7 65% 29.84 0.0
05 01:35 Calm 10.00 Fair CLR 59.7 48.4 66% 29.83 0.0
05 01:15 S 5 10.00 Fair CLR 58.1 49.1 72% 29.83 0.0
05 00:55 S 3 10.00 Fair CLR 58.1 49.3 73% 29.84 0.0
05 00:35 S 3 10.00 Fair CLR 58.6 49.1 71% 29.84 0.0
05 00:15 Calm 10.00 Fair CLR 61.2 48.9 64% 29.83 0.0
04 23:55 Calm 10.00 Fair CLR 61.9 49.1 63% 29.84 0.0
04 23:35 S 3 10.00 Fair CLR 62.8 49.1 61% 29.84 0.0
04 23:15 S 8 10.00 Fair CLR 63 49.3 61% 29.84 0.0
04 22:55 S 5 10.00 Fair CLR 61.7 49.5 64% 29.84 0.0
04 22:35 S 3 10.00 Fair CLR 62.2 49.5 63% 29.84 0.0
04 22:15 SW 5 10.00 Fair CLR 64 49.3 59% 29.84 0.0
04 21:55 SW 6 10.00 Fair CLR 64.8 49.5 58% 29.84 0.0
04 21:35 S 7 10.00 Fair CLR 65.5 49.5 56% 29.84 0.0
04 21:15 SW 6 10.00 Partly Cloudy SCT120 66.2 49.3 55% 29.83 0.0
04 20:55 SW 5 10.00 Partly Cloudy SCT120 66.7 49.1 53% 29.81 0.0
04 20:35 SW 6 10.00 Partly Cloudy SCT050 SCT110 66.7 49.1 53% 29.81 0.0
04 20:15 SW 3 10.00 Mostly Cloudy SCT050 SCT065 BKN110 68.4 48.6 49% 29.8 0.0
04 19:55 SW 6 10.00 Partly Cloudy SCT100 SCT120 68.9 47.8 76.5 68.9 47% 29.8 0.0
04 19:35 SW 6 10.00 Overcast SCT060 SCT075 OVC100 70.3 47.3 44% 29.8 0.0
04 19:15 S 9 10.00 Mostly Cloudy SCT060 BKN070 BKN100 71.1 46.8 42% 29.8 0.0
04 18:55 S 12 G 17 10.00 Overcast SCT033 SCT055 OVC090 73 44.8 36% 29.8 0.0
04 18:35 SW 8 10.00 Overcast OVC090 73.4 45 36% 29.79 0.0
04 18:15 S 7 10.00 Mostly Cloudy BKN090 73.9 45.1 36% 29.79 0.0
04 17:55 S 9 10.00 Fair CLR 75.7 45.9 35% 77 29.78 0.0
04 17:35 SW 7 G 17 10.00 Partly Cloudy SCT100 75.6 46.2 35% 77 29.78 0.0
04 17:15 S 7 G 18 10.00 Fair CLR 73.2 44.4 36% 29.78 0.0
04 16:55 S 9 10.00 Partly Cloudy SCT090 75.7 45.1 34% 77 29.78 0.0
04 16:35 SW 8 G 16 10.00 Partly Cloudy SCT090 75.2 44.4 33% 77 29.79 0.0
04 16:15 SW 8 10.00 Partly Cloudy SCT090 74.3 43.9 34% 29.79 0.0
04 15:55 SW 5 10.00 Partly Cloudy SCT090 74.1 43.5 34% 29.79 0.0
04 15:35 S 8 G 16 10.00 Partly Cloudy SCT090 75.2 42.8 31% 77 29.81 0.0
04 15:15 S 9 10.00 Partly Cloudy SCT090 75.9 43.7 32% 77 29.81 0.0
04 14:55 SE 5 G 18 10.00 Partly Cloudy SCT080 75.2 42.8 31% 77 29.82 0.0
04 14:35 S 9 10.00 Partly Cloudy SCT090 75.4 43.5 32% 77 29.83 0.0
04 14:15 S 9 10.00 Partly Cloudy SCT080 74.1 42.8 33% 29.84 0.0
04 13:55 S 9 10.00 Partly Cloudy SCT080 74.3 43.5 74.3 51.3 33% 29.85 0.0
04 13:35 SW 3 10.00 Partly Cloudy SCT080 72.3 42.6 34% 29.86 0.0
04 13:15 SW 7 10.00 Partly Cloudy SCT080 72.1 42.1 34% 29.87 0.0
04 12:55 S 12 10.00 Fair CLR 72.5 43.5 35% 29.88 0.0
04 12:35 SW 5 10.00 Fair CLR 70.3 41.9 36% 29.89 0.0
04 12:15 S 7 10.00 Fair CLR 70 42.1 37% 29.9 0.0
04 11:55 S 7 10.00 Fair CLR 69.1 41 36% 29.9 0.0
04 11:35 S 7 10.00 Fair CLR 68.2 42.1 39% 29.91 0.0
04 11:15 S 9 10.00 Fair CLR 66.7 41 39% 29.91 0.0
04 10:55 S 7 10.00 Fair CLR 65.5 40.8 41% 29.92 0.0
04 10:35 SW 8 10.00 Fair CLR 63.7 39.7 42% 29.92 0.0
04 10:15 SW 10 10.00 Fair CLR 63.1 39.6 42% 29.92 0.0
04 09:55 SW 8 10.00 Fair CLR 61.3 38.7 43% 29.93 0.0
04 09:35 SW 7 10.00 Fair CLR 59.2 37.4 44% 29.94 0.0
04 09:15 S 7 10.00 Fair CLR 58.6 37.2 45% 29.93 0.0
04 08:55 S 8 G 16 10.00 Partly Cloudy SCT120 56.5 36 46% 29.94 0.0
04 08:35 S 8 10.00 Mostly Cloudy BKN120 54.9 36.9 51% 29.94 0.0
04 08:15 S 5 10.00 Partly Cloudy SCT120 52.7 36.7 55% 29.95 0.0
04 07:55 S 6 10.00 Partly Cloudy SCT120 50.7 35.8 50.7 44.8 57% 29.95 0.0
04 07:35 S 5 10.00 Partly Cloudy SCT095 48 35.6 62% 47 29.95 0.0
04 07:15 S 6 10.00 Overcast OVC095 47.5 36 64% 45 29.95 0.0
04 06:55 S 5 10.00 Overcast OVC095 46.9 36 66% 45 29.96 0.0
04 06:35 S 3 10.00 Overcast OVC085 45.9 36.1 69% 29.95 0.0
04 06:15 S 3 10.00 Overcast OVC085 45.9 36.3 69% 29.95 0.0
04 05:55 SE 3 10.00 Overcast OVC095 45.7 36.5 70% 29.96 0.0
04 05:35 S 3 10.00 Overcast BKN095 OVC110 45.1 36 70% 29.96 0.0
04 05:15 S 3 10.00 Overcast SCT090 OVC110 45.3 35.6 69% 29.96 0.0
04 04:55 Calm 10.00 Mostly Cloudy BKN090 BKN110 45.7 35.6 68% 29.96 0.0
04 04:35 S 5 10.00 Overcast OVC090 46.6 34.9 64% 45 29.96 0.0
04 04:15 S 3 10.00 Overcast OVC090 46.6 35.6 66% 29.96 0.0
04 03:55 S 5 10.00 Overcast OVC090 46.4 36 67% 45 29.96 0.0
04 03:35 S 3 10.00 Overcast OVC090 46.2 35.8 67% 29.96 0.0
04 03:15 S 5 10.00 Overcast OVC090 46.2 35.6 67% 45 29.97 0.0
04 02:55 Calm 10.00 Overcast OVC090 45.7 35.6 68% 29.97 0.0
04 02:35 Calm 10.00 Overcast OVC100 45.7 35.4 67% 29.97 0.0
04 02:15 Calm 10.00 Overcast OVC100 45.5 35.8 69% 29.97 0.0
04 01:55 Calm 10.00 Overcast OVC100 45 37.2 56.8 41.9 74% 29.97 0.0
04 01:35 Calm 10.00 Overcast OVC100 44.4 36.5 74% 29.98 0.0
04 01:15 Calm 10.00 Overcast OVC110 44.1 36.9 76% 29.98 0.0
04 00:55 Calm 10.00 Overcast OVC110 45 34.9 68% 29.98 0.0
04 00:35 S 3 10.00 Overcast OVC110 43.3 36.3 76% 29.98 0.0
04 00:15 Calm 10.00 Mostly Cloudy BKN120 42.3 33.8 72% 29.99 0.0
03 23:55 Calm 10.00 Fair CLR 41.9 33.4 72% 29.98 0.0
03 23:35 S 5 10.00 Fair CLR 44.8 32.4 62% 43 29.98 0.0
03 23:15 Calm 10.00 Fair CLR 45.5 32.5 61% 29.97 0.0
03 22:55 S 3 10.00 Fair CLR 47.3 32 55% 29.98 0.0
03 22:35 S 3 10.00 Fair CLR 47.8 32 54% 29.97 0.0
03 22:15 SW 6 10.00 Fair CLR 48.9 32 52% 47 29.97 0.0
03 21:55 S 5 10.00 Fair CLR 46.9 33.1 59% 45 29.96 0.0
03 21:35 Calm 10.00 Fair CLR 47.5 32 55% 29.95 0.0
03 21:15 Calm 10.00 Fair CLR 49.6 32 51% 29.95 0.0
03 20:55 Calm 10.00 Fair CLR 50.5 29.3 44% 29.94 0.0
03 20:35 Calm 10.00 Fair CLR 54.7 28 36% 29.94 0.0
03 20:15 Calm 10.00 Fair CLR 55.9 27.7 34% 29.94 0.0
03 19:55 W 5 10.00 Fair CLR 57.4 28.6 62.8 57.4 33% 29.94 0.0
03 19:35 W 3 10.00 Fair CLR 59 28.6 31% 29.94 0.0
03 19:15 W 6 10.00 Fair CLR 60.3 27.7 29% 29.94 0.0
03 18:55 W 5 10.00 Fair CLR 61 25.9 26% 29.93 0.0
03 18:35 NW 6 10.00 Fair CLR 61.7 27.3 27% 29.93 0.0
03 18:15 NW 7 10.00 Fair CLR 62.2 26.1 25% 29.94 0.0
03 17:55 NW 3 G 17 10.00 Fair CLR 62.1 25.2 24% 29.94 0.0
03 17:35 NW 7 10.00 Fair CLR 62.4 25.5 25% 29.94 0.0
03 17:15 W 12 10.00 Fair CLR 62.6 26.8 26% 29.94 0.0
03 16:55 W 8 10.00 Fair CLR 62.4 26.8 26% 29.94 0.0
03 16:35 W 6 10.00 Fair CLR 61.9 27.3 27% 29.94 0.0
03 16:15 Calm 10.00 Fair CLR 61 24.6 25% 29.95 0.0
03 15:55 Calm 10.00 Fair CLR 60.4 25 26% 29.96 0.0
03 15:35 W 6 10.00 Fair CLR 60.6 26.4 27% 29.97 0.0
03 15:15 W 9 G 17 10.00 Fair CLR 61 26.4 27% 29.98 0.0
03 14:55 N 9 10.00 Partly Cloudy SCT075 59.9 26.6 28% 29.99 0.0
03 14:35 W 13 G 16 10.00 Partly Cloudy SCT075 60.1 28.9 31% 29.99 0.0
03 14:15 W 13 G 17 10.00 Mostly Cloudy BKN075 59.4 28.9 32% 29.99 0.0
03 13:55 W 12 G 18 10.00 Partly Cloudy SCT075 58.6 26.4 58.6 44.8 29% 30 0.0
03 13:35 NW 12 G 22 10.00 Partly Cloudy SCT075 58.5 28.4 32% 30.01 0.0
03 13:15 NW 7 G 22 10.00 Fair CLR 57 28.2 33% 30.01 0.0
03 12:55 NW 14 G 21 10.00 Partly Cloudy SCT065 56.7 28.6 34% 30.02 0.0
03 12:35 Calm 10.00 Partly Cloudy SCT065 55.8 28.4 35% 30.02 0.0
03 12:15 N 8 10.00 Partly Cloudy SCT065 55 27.5 35% 30.02 0.0
03 11:55 NW 7 10.00 Partly Cloudy SCT065 53.1 25.9 35% 30.03 0.0
03 11:35 W 13 G 17 10.00 Fair CLR 54.9 29.1 37% 30.04 0.0
03 11:15 N 6 G 16 10.00 Partly Cloudy SCT060 52.3 26.4 37% 30.04 0.0
03 10:55 W 7 10.00 Mostly Cloudy BKN060 53.4 29.3 40% 30.04 0.0
03 10:35 NW 7 10.00 Mostly Cloudy BKN060 51.3 25.5 37% 30.04 0.0
03 10:15 NW 12 G 21 10.00 Partly Cloudy SCT050 49.5 26.1 40% 45 30.04 0.0
03 09:55 NW 9 G 17 10.00 Partly Cloudy SCT050 47.8 26.8 44% 44 30.04 0.0
03 09:35 W 9 10.00 Partly Cloudy SCT050 46.9 27.1 46% 43 30.05 0.0
03 09:15 W 10 G 18 10.00 Partly Cloudy SCT050 47.5 27.7 46% 43 30.05 0.0
03 08:55 NW 7 10.00 Partly Cloudy SCT050 46.8 28.2 49% 44 30.05 0.0
03 08:35 W 3 10.00 Fair CLR 46.4 28.4 50% 30.05 0.0
03 08:15 W 8 10.00 Fair CLR 45.5 29.1 53% 42 30.04 0.0
03 07:55 Calm 10.00 Fair CLR 44.4 28.9 44.4 38.5 55% 30.04 0.0
03 07:35 Calm 10.00 Fair CLR 43.3 28.6 56% 30.03 0.0
03 07:15 Calm 10.00 Fair CLR 41.7 30.4 64% 30.02 0.0
03 06:55 Calm 10.00 Fair CLR 40.1 29.7 66% 30.01 0.0
03 06:35 Calm 10.00 Fair CLR 39 30 70% 30 0.0
03 06:15 W 5 10.00 Fair CLR 39.4 29.8 69% 37 29.99 0.0
03 05:55 W 3 10.00 Partly Cloudy SCT040 39.4 29.8 69% 29.99 0.0
03 05:35 NW 3 10.00 Mostly Cloudy SCT040 BKN070 40.5 30 66% 29.99 0.0
03 05:15 NW 5 10.00 Overcast SCT040 OVC070 41.9 30.2 63% 40 29.99 0.0
03 04:55 NW 6 10.00 Overcast OVC070 42.4 30.2 62% 39 29.98 0.0
Date Time (edt) Wind (mph) Vis. (mi.) Weather Sky Cond. Air Dwpt Max. Min. Relative Humidity Wind Chill (°F) Heat Index (°F) altimeter (in) sea level (mb) 1 hr 3 hr 6 hr
6 hour
Temperature (ºF) Pressure Precipitation (in)